sensor_id;sensor_type;location;lat;lon;timestamp;pressure;altitude;pressure_sealevel;temperature;humidity
71772;BME280;59606;52.138;5.424;2023-11-21T00:02:18;101147.88;;;6.49;100.00
71772;BME280;59606;52.138;5.424;2023-11-21T00:04:44;101149.56;;;6.50;100.00
71772;BME280;59606;52.138;5.424;2023-11-21T00:07:12;101148.78;;;6.48;100.00
71772;BME280;59606;52.138;5.424;2023-11-21T00:09:38;101156.50;;;6.50;100.00
71772;BME280;59606;52.138;5.424;2023-11-21T00:12:05;101160.84;;;6.49;100.00
71772;BME280;59606;52.138;5.424;2023-11-21T00:14:32;101163.41;;;6.49;100.00
71772;BME280;59606;52.138;5.424;2023-11-21T00:16:59;101157.34;;;6.50;100.00
71772;BME280;59606;52.138;5.424;2023-11-21T00:19:26;101161.56;;;6.53;100.00
71772;BME280;59606;52.138;5.424;2023-11-21T00:21:52;101167.66;;;6.52;100.00
71772;BME280;59606;52.138;5.424;2023-11-21T00:24:19;101167.69;;;6.50;100.00
71772;BME280;59606;52.138;5.424;2023-11-21T00:26:45;101169.44;;;6.50;100.00
71772;BME280;59606;52.138;5.424;2023-11-21T00:29:15;101168.59;;;6.49;100.00
71772;BME280;59606;52.138;5.424;2023-11-21T00:31:44;101175.59;;;6.47;100.00
71772;BME280;59606;52.138;5.424;2023-11-21T00:34:12;101171.34;;;6.45;100.00
71772;BME280;59606;52.138;5.424;2023-11-21T00:36:39;101170.50;;;6.44;100.00
71772;BME280;59606;52.138;5.424;2023-11-21T00:39:06;101168.78;;;6.43;100.00
71772;BME280;59606;52.138;5.424;2023-11-21T00:41:34;101182.63;;;6.42;100.00
71772;BME280;59606;52.138;5.424;2023-11-21T00:44:00;101173.19;;;6.41;100.00
71772;BME280;59606;52.138;5.424;2023-11-21T00:46:28;101174.03;;;6.42;100.00
71772;BME280;59606;52.138;5.424;2023-11-21T00:48:55;101176.66;;;6.40;100.00
71772;BME280;59606;52.138;5.424;2023-11-21T00:51:22;101173.19;;;6.41;100.00
71772;BME280;59606;52.138;5.424;2023-11-21T00:53:49;101180.97;;;6.40;100.00
71772;BME280;59606;52.138;5.424;2023-11-21T00:56:16;101183.53;;;6.41;100.00
71772;BME280;59606;52.138;5.424;2023-11-21T00:58:42;101187.06;;;6.38;100.00
71772;BME280;59606;52.138;5.424;2023-11-21T01:01:13;101186.25;;;6.36;100.00
71772;BME280;59606;52.138;5.424;2023-11-21T01:06:13;101199.19;;;6.36;100.00
71772;BME280;59606;52.138;5.424;2023-11-21T01:08:43;101204.34;;;6.38;100.00
71772;BME280;59606;52.138;5.424;2023-11-21T01:11:11;101206.97;;;6.36;100.00
71772;BME280;59606;52.138;5.424;2023-11-21T01:13:39;101216.53;;;6.34;100.00
71772;BME280;59606;52.138;5.424;2023-11-21T01:16:07;101209.53;;;6.36;100.00
71772;BME280;59606;52.138;5.424;2023-11-21T01:18:35;101208.66;;;6.37;100.00
71772;BME280;59606;52.138;5.424;2023-11-21T01:21:01;101213.75;;;6.41;100.00
71772;BME280;59606;52.138;5.424;2023-11-21T01:23:28;101214.59;;;6.41;100.00
71772;BME280;59606;52.138;5.424;2023-11-21T01:25:55;101205.13;;;6.40;100.00
71772;BME280;59606;52.138;5.424;2023-11-21T01:28:22;101206.88;;;6.40;100.00
71772;BME280;59606;52.138;5.424;2023-11-21T01:30:49;101200.75;;;6.42;100.00
71772;BME280;59606;52.138;5.424;2023-11-21T01:33:15;101206.78;;;6.43;100.00
71772;BME280;59606;52.138;5.424;2023-11-21T01:35:42;101210.19;;;6.43;100.00
71772;BME280;59606;52.138;5.424;2023-11-21T01:38:09;101213.63;;;6.44;100.00
71772;BME280;59606;52.138;5.424;2023-11-21T01:40:35;101208.41;;;6.45;100.00
71772;BME280;59606;52.138;5.424;2023-11-21T01:43:02;101213.53;;;6.47;100.00
71772;BME280;59606;52.138;5.424;2023-11-21T01:45:29;101216.13;;;6.47;100.00
71772;BME280;59606;52.138;5.424;2023-11-21T01:47:59;101219.53;;;6.49;100.00
71772;BME280;59606;52.138;5.424;2023-11-21T01:50:27;101222.00;;;6.52;100.00
71772;BME280;59606;52.138;5.424;2023-11-21T01:52:55;101219.34;;;6.53;100.00
71772;BME280;59606;52.138;5.424;2023-11-21T01:55:22;101224.50;;;6.55;100.00
71772;BME280;59606;52.138;5.424;2023-11-21T01:57:54;101226.19;;;6.56;100.00
71772;BME280;59606;52.138;5.424;2023-11-21T02:00:22;101230.53;;;6.55;100.00
71772;BME280;59606;52.138;5.424;2023-11-21T02:02:50;101225.28;;;6.57;100.00
71772;BME280;59606;52.138;5.424;2023-11-21T02:05:18;101232.97;;;6.60;100.00
71772;BME280;59606;52.138;5.424;2023-11-21T02:07:46;101238.09;;;6.61;100.00
71772;BME280;59606;52.138;5.424;2023-11-21T02:10:16;101241.56;;;6.60;100.00
71772;BME280;59606;52.138;5.424;2023-11-21T02:12:44;101247.63;;;6.61;100.00
71772;BME280;59606;52.138;5.424;2023-11-21T02:15:15;101257.88;;;6.64;100.00
71772;BME280;59606;52.138;5.424;2023-11-21T02:17:42;101258.63;;;6.68;100.00
71772;BME280;59606;52.138;5.424;2023-11-21T02:20:13;101255.97;;;6.69;100.00
71772;BME280;59606;52.138;5.424;2023-11-21T02:22:43;101260.31;;;6.69;100.00
71772;BME280;59606;52.138;5.424;2023-11-21T02:25:10;101261.13;;;6.71;100.00
71772;BME280;59606;52.138;5.424;2023-11-21T02:27:37;101256.72;;;6.73;100.00
71772;BME280;59606;52.138;5.424;2023-11-21T02:30:04;101260.97;;;6.75;100.00
71772;BME280;59606;52.138;5.424;2023-11-21T02:32:31;101263.44;;;6.78;100.00
71772;BME280;59606;52.138;5.424;2023-11-21T02:34:58;101260.88;;;6.78;100.00
71772;BME280;59606;52.138;5.424;2023-11-21T02:37:27;101259.03;;;6.82;100.00
71772;BME280;59606;52.138;5.424;2023-11-21T02:39:53;101260.69;;;6.83;100.00
71772;BME280;59606;52.138;5.424;2023-11-21T02:42:20;101267.53;;;6.85;100.00
71772;BME280;59606;52.138;5.424;2023-11-21T02:44:47;101269.22;;;6.87;100.00
71772;BME280;59606;52.138;5.424;2023-11-21T02:47:13;101266.59;;;6.88;100.00
71772;BME280;59606;52.138;5.424;2023-11-21T02:49:40;101269.13;;;6.90;100.00
71772;BME280;59606;52.138;5.424;2023-11-21T02:52:07;101269.97;;;6.90;100.00
71772;BME280;59606;52.138;5.424;2023-11-21T02:54:33;101273.38;;;6.91;100.00
71772;BME280;59606;52.138;5.424;2023-11-21T02:57:03;101273.34;;;6.92;100.00
71772;BME280;59606;52.138;5.424;2023-11-21T02:59:29;101269.00;;;6.94;100.00
71772;BME280;59606;52.138;5.424;2023-11-21T03:01:55;101265.50;;;6.95;100.00
71772;BME280;59606;52.138;5.424;2023-11-21T03:04:23;101272.34;;;6.96;100.00
71772;BME280;59606;52.138;5.424;2023-11-21T03:06:50;101274.00;;;6.99;100.00
71772;BME280;59606;52.138;5.424;2023-11-21T03:09:16;101268.75;;;7.00;100.00
71772;BME280;59606;52.138;5.424;2023-11-21T03:11:43;101273.91;;;7.02;100.00
71772;BME280;59606;52.138;5.424;2023-11-21T03:14:09;101273.00;;;7.03;100.00
71772;BME280;59606;52.138;5.424;2023-11-21T03:16:37;101267.78;;;7.04;100.00
71772;BME280;59606;52.138;5.424;2023-11-21T03:19:04;101267.78;;;7.04;100.00
71772;BME280;59606;52.138;5.424;2023-11-21T03:21:31;101272.91;;;7.06;100.00
71772;BME280;59606;52.138;5.424;2023-11-21T03:23:58;101269.47;;;7.05;100.00
71772;BME280;59606;52.138;5.424;2023-11-21T03:26:26;101270.31;;;7.06;100.00
71772;BME280;59606;52.138;5.424;2023-11-21T03:28:52;101273.75;;;7.06;100.00
71772;BME280;59606;52.138;5.424;2023-11-21T03:31:20;101266.81;;;7.07;100.00
71772;BME280;59606;52.138;5.424;2023-11-21T03:33:47;101268.63;;;7.05;100.00
71772;BME280;59606;52.138;5.424;2023-11-21T03:36:14;101272.91;;;7.06;100.00
71772;BME280;59606;52.138;5.424;2023-11-21T03:38:44;101278.09;;;7.06;100.00
71772;BME280;59606;52.138;5.424;2023-11-21T03:41:11;101286.69;;;7.06;100.00
71772;BME280;59606;52.138;5.424;2023-11-21T03:43:37;101290.13;;;7.07;100.00
71772;BME280;59606;52.138;5.424;2023-11-21T03:46:04;101282.31;;;7.08;100.00
71772;BME280;59606;52.138;5.424;2023-11-21T03:48:30;101281.47;;;7.08;100.00
71772;BME280;59606;52.138;5.424;2023-11-21T03:50:57;101291.78;;;7.09;100.00
71772;BME280;59606;52.138;5.424;2023-11-21T03:53:24;101293.44;;;7.12;100.00
71772;BME280;59606;52.138;5.424;2023-11-21T03:55:50;101302.03;;;7.13;100.00
71772;BME280;59606;52.138;5.424;2023-11-21T03:58:17;101308.03;;;7.15;100.00
71772;BME280;59606;52.138;5.424;2023-11-21T04:00:43;101303.69;;;7.15;100.00
71772;BME280;59606;52.138;5.424;2023-11-21T04:03:10;101306.28;;;7.15;100.00
71772;BME280;59606;52.138;5.424;2023-11-21T04:05:37;101308.81;;;7.17;100.00
71772;BME280;59606;52.138;5.424;2023-11-21T04:08:04;101314.84;;;7.17;100.00
71772;BME280;59606;52.138;5.424;2023-11-21T04:10:30;101314.00;;;7.17;100.00
71772;BME280;59606;52.138;5.424;2023-11-21T04:12:57;101318.31;;;7.18;100.00
71772;BME280;59606;52.138;5.424;2023-11-21T04:15:23;101319.91;;;7.20;100.00
71772;BME280;59606;52.138;5.424;2023-11-21T04:17:50;101323.34;;;7.21;100.00
71772;BME280;59606;52.138;5.424;2023-11-21T04:20:17;101326.81;;;7.21;100.00
71772;BME280;59606;52.138;5.424;2023-11-21T04:22:44;101327.66;;;7.22;100.00
71772;BME280;59606;52.138;5.424;2023-11-21T04:25:13;101329.34;;;7.23;100.00
71772;BME280;59606;52.138;5.424;2023-11-21T04:27:41;101335.38;;;7.23;100.00
71772;BME280;59606;52.138;5.424;2023-11-21T04:30:13;101336.22;;;7.24;100.00
71772;BME280;59606;52.138;5.424;2023-11-21T04:32:40;101335.34;;;7.25;100.00
71772;BME280;59606;52.138;5.424;2023-11-21T04:35:07;101336.13;;;7.27;100.00
71772;BME280;59606;52.138;5.424;2023-11-21T04:37:34;101345.59;;;7.28;100.00
71772;BME280;59606;52.138;5.424;2023-11-21T04:40:01;101342.94;;;7.29;100.00
71772;BME280;59606;52.138;5.424;2023-11-21T04:42:30;101351.56;;;7.30;100.00
71772;BME280;59606;52.138;5.424;2023-11-21T04:44:57;101355.88;;;7.31;100.00
71772;BME280;59606;52.138;5.424;2023-11-21T04:47:23;101361.84;;;7.33;100.00
71772;BME280;59606;52.138;5.424;2023-11-21T04:49:50;101360.91;;;7.34;100.00
71772;BME280;59606;52.138;5.424;2023-11-21T04:52:16;101356.63;;;7.35;100.00
71772;BME280;59606;52.138;5.424;2023-11-21T04:54:43;101360.88;;;7.36;100.00
71772;BME280;59606;52.138;5.424;2023-11-21T04:57:09;101353.88;;;7.38;100.00
71772;BME280;59606;52.138;5.424;2023-11-21T04:59:36;101358.19;;;7.39;100.00
71772;BME280;59606;52.138;5.424;2023-11-21T05:02:02;101354.69;;;7.40;100.00
71772;BME280;59606;52.138;5.424;2023-11-21T05:04:29;101360.69;;;7.42;100.00
71772;BME280;59606;52.138;5.424;2023-11-21T05:06:56;101363.28;;;7.42;100.00
71772;BME280;59606;52.138;5.424;2023-11-21T05:09:23;101368.41;;;7.43;100.00
71772;BME280;59606;52.138;5.424;2023-11-21T05:11:49;101369.25;;;7.44;100.00
71772;BME280;59606;52.138;5.424;2023-11-21T05:14:16;101371.81;;;7.45;100.00
71772;BME280;59606;52.138;5.424;2023-11-21T05:16:45;101375.19;;;7.47;100.00
71772;BME280;59606;52.138;5.424;2023-11-21T05:19:11;101384.66;;;7.48;100.00
71772;BME280;59606;52.138;5.424;2023-11-21T05:21:39;101387.19;;;7.50;100.00
71772;BME280;59606;52.138;5.424;2023-11-21T05:24:06;101387.16;;;7.51;100.00
71772;BME280;59606;52.138;5.424;2023-11-21T05:26:33;101390.59;;;7.52;100.00
71772;BME280;59606;52.138;5.424;2023-11-21T05:28:59;101380.16;;;7.53;100.00
71772;BME280;59606;52.138;5.424;2023-11-21T05:31:26;101388.78;;;7.54;100.00
71772;BME280;59606;52.138;5.424;2023-11-21T05:33:53;101384.47;;;7.54;100.00
71772;BME280;59606;52.138;5.424;2023-11-21T05:36:20;101388.75;;;7.55;100.00
71772;BME280;59606;52.138;5.424;2023-11-21T05:38:46;101399.06;;;7.57;100.00
71772;BME280;59606;52.138;5.424;2023-11-21T05:41:13;101399.06;;;7.57;100.00
71772;BME280;59606;52.138;5.424;2023-11-21T05:43:40;101399.91;;;7.57;100.00
71772;BME280;59606;52.138;5.424;2023-11-21T05:46:07;101402.47;;;7.59;100.00
71772;BME280;59606;52.138;5.424;2023-11-21T05:48:34;101404.13;;;7.60;100.00
71772;BME280;59606;52.138;5.424;2023-11-21T05:51:07;101411.88;;;7.62;100.00
71772;BME280;59606;52.138;5.424;2023-11-21T05:53:34;101406.69;;;7.62;100.00
71772;BME280;59606;52.138;5.424;2023-11-21T05:56:02;101413.50;;;7.64;100.00
71772;BME280;59606;52.138;5.424;2023-11-21T05:58:30;101410.91;;;7.64;100.00
71772;BME280;59606;52.138;5.424;2023-11-21T06:00:56;101418.66;;;7.66;100.00
71772;BME280;59606;52.138;5.424;2023-11-21T06:03:24;101424.63;;;7.68;100.00
71772;BME280;59606;52.138;5.424;2023-11-21T06:05:51;101428.09;;;7.68;100.00
71772;BME280;59606;52.138;5.424;2023-11-21T06:08:18;101425.44;;;7.70;100.00
71772;BME280;59606;52.138;5.424;2023-11-21T06:10:45;101436.59;;;7.72;100.00
71772;BME280;59606;52.138;5.424;2023-11-21T06:13:16;101438.28;;;7.73;100.00
71772;BME280;59606;52.138;5.424;2023-11-21T06:15:42;101433.94;;;7.73;100.00
71772;BME280;59606;52.138;5.424;2023-11-21T06:18:09;101449.47;;;7.75;100.00
71772;BME280;59606;52.138;5.424;2023-11-21T06:20:40;101448.56;;;7.76;100.00
71772;BME280;59606;52.138;5.424;2023-11-21T06:23:07;101445.97;;;7.76;100.00
71772;BME280;59606;52.138;5.424;2023-11-21T06:25:33;101447.56;;;7.80;100.00
71772;BME280;59606;52.138;5.424;2023-11-21T06:28:02;101456.16;;;7.82;100.00
71772;BME280;59606;52.138;5.424;2023-11-21T06:30:29;101454.34;;;7.84;100.00
71772;BME280;59606;52.138;5.424;2023-11-21T06:32:55;101452.56;;;7.86;100.00
71772;BME280;59606;52.138;5.424;2023-11-21T06:35:22;101451.63;;;7.87;100.00
71772;BME280;59606;52.138;5.424;2023-11-21T06:37:49;101451.53;;;7.90;100.00
71772;BME280;59606;52.138;5.424;2023-11-21T06:40:17;101456.69;;;7.92;100.00
71772;BME280;59606;52.138;5.424;2023-11-21T06:42:48;101461.78;;;7.95;100.00
71772;BME280;59606;52.138;5.424;2023-11-21T06:45:16;101463.41;;;7.97;100.00
71772;BME280;59606;52.138;5.424;2023-11-21T06:47:42;101468.50;;;8.00;100.00
71772;BME280;59606;52.138;5.424;2023-11-21T06:50:10;101464.09;;;8.02;100.00
71772;BME280;59606;52.138;5.424;2023-11-21T06:52:36;101473.47;;;8.07;100.00
71772;BME280;59606;52.138;5.424;2023-11-21T06:55:04;101479.47;;;8.09;100.00
71772;BME280;59606;52.138;5.424;2023-11-21T06:57:31;101479.41;;;8.10;100.00
71772;BME280;59606;52.138;5.424;2023-11-21T06:59:57;101476.72;;;8.13;100.00
71772;BME280;59606;52.138;5.424;2023-11-21T07:02:24;101481.84;;;8.15;100.00
71772;BME280;59606;52.138;5.424;2023-11-21T07:04:51;101496.44;;;8.19;100.00
71772;BME280;59606;52.138;5.424;2023-11-21T07:07:18;101491.13;;;8.22;100.00
71772;BME280;59606;52.138;5.424;2023-11-21T07:09:45;101500.59;;;8.23;100.00
71772;BME280;59606;52.138;5.424;2023-11-21T07:12:11;101499.66;;;8.25;100.00
71772;BME280;59606;52.138;5.424;2023-11-21T07:14:38;101509.06;;;8.28;100.00
71772;BME280;59606;52.138;5.424;2023-11-21T07:17:06;101510.72;;;8.31;100.00
71772;BME280;59606;52.138;5.424;2023-11-21T07:19:33;101515.03;;;8.32;100.00
71772;BME280;59606;52.138;5.424;2023-11-21T07:22:00;101513.31;;;8.31;100.00
71772;BME280;59606;52.138;5.424;2023-11-21T07:24:27;101523.66;;;8.32;100.00
71772;BME280;59606;52.138;5.424;2023-11-21T07:26:53;101528.78;;;8.34;100.00
71772;BME280;59606;52.138;5.424;2023-11-21T07:29:24;101533.88;;;8.37;100.00
71772;BME280;59606;52.138;5.424;2023-11-21T07:31:53;101536.44;;;8.38;100.00
71772;BME280;59606;52.138;5.424;2023-11-21T07:34:20;101533.81;;;8.40;100.00
71772;BME280;59606;52.138;5.424;2023-11-21T07:36:47;101531.13;;;8.41;100.00
71772;BME280;59606;52.138;5.424;2023-11-21T07:39:14;101527.59;;;8.44;100.00
71772;BME280;59606;52.138;5.424;2023-11-21T07:41:42;101535.25;;;8.48;100.00
71772;BME280;59606;52.138;5.424;2023-11-21T07:44:16;101537.78;;;8.50;100.00
71772;BME280;59606;52.138;5.424;2023-11-21T07:46:43;101545.50;;;8.52;100.00
71772;BME280;59606;52.138;5.424;2023-11-21T07:49:11;101541.22;;;8.50;100.00
71772;BME280;59606;52.138;5.424;2023-11-21T07:51:37;101549.72;;;8.56;100.00
71772;BME280;59606;52.138;5.424;2023-11-21T07:54:04;101551.38;;;8.57;100.00
71772;BME280;59606;52.138;5.424;2023-11-21T07:56:31;101554.78;;;8.59;100.00
71772;BME280;59606;52.138;5.424;2023-11-21T07:58:58;101559.88;;;8.62;100.00
71772;BME280;59606;52.138;5.424;2023-11-21T08:01:25;101560.56;;;8.67;100.00
71772;BME280;59606;52.138;5.424;2023-11-21T08:03:52;101569.94;;;8.71;100.00
71772;BME280;59606;52.138;5.424;2023-11-21T08:06:19;101575.94;;;8.73;100.00
71772;BME280;59606;52.138;5.424;2023-11-21T08:08:45;101577.63;;;8.74;100.00
71772;BME280;59606;52.138;5.424;2023-11-21T08:11:12;101581.78;;;8.78;100.00
71772;BME280;59606;52.138;5.424;2023-11-21T08:13:39;101586.88;;;8.81;100.00
71772;BME280;59606;52.138;5.424;2023-11-21T08:16:06;101591.13;;;8.84;100.00
71772;BME280;59606;52.138;5.424;2023-11-21T08:18:33;101604.03;;;8.87;100.00
71772;BME280;59606;52.138;5.424;2023-11-21T08:21:00;101607.41;;;8.89;100.00
71772;BME280;59606;52.138;5.424;2023-11-21T08:23:27;101610.75;;;8.92;100.00
71772;BME280;59606;52.138;5.424;2023-11-21T08:25:55;101612.38;;;8.95;100.00
71772;BME280;59606;52.138;5.424;2023-11-21T08:28:21;101616.63;;;8.97;100.00
71772;BME280;59606;52.138;5.424;2023-11-21T08:30:52;101620.03;;;9.00;100.00
71772;BME280;59606;52.138;5.424;2023-11-21T08:33:21;101625.16;;;9.01;100.00
71772;BME280;59606;52.138;5.424;2023-11-21T08:35:48;101636.34;;;9.03;100.00
71772;BME280;59606;52.138;5.424;2023-11-21T08:38:15;101646.69;;;9.05;100.00
71772;BME280;59606;52.138;5.424;2023-11-21T08:40:41;101653.66;;;9.04;100.00
71772;BME280;59606;52.138;5.424;2023-11-21T08:43:08;101655.28;;;9.07;100.00
71772;BME280;59606;52.138;5.424;2023-11-21T08:45:34;101653.53;;;9.07;100.00
71772;BME280;59606;52.138;5.424;2023-11-21T08:48:01;101663.81;;;9.10;100.00
71772;BME280;59606;52.138;5.424;2023-11-21T08:50:29;101661.13;;;9.13;100.00
71772;BME280;59606;52.138;5.424;2023-11-21T08:52:55;101662.78;;;9.16;100.00
71772;BME280;59606;52.138;5.424;2023-11-21T08:55:22;101665.31;;;9.17;100.00
71772;BME280;59606;52.138;5.424;2023-11-21T08:57:49;101664.38;;;9.18;100.00
71772;BME280;59606;52.138;5.424;2023-11-21T09:00:16;101663.41;;;9.23;100.00
71772;BME280;59606;52.138;5.424;2023-11-21T09:02:44;101661.53;;;9.26;100.00
71772;BME280;59606;52.138;5.424;2023-11-21T09:05:12;101656.16;;;9.31;100.00
71772;BME280;59606;52.138;5.424;2023-11-21T09:07:41;101670.59;;;9.39;100.00
71772;BME280;59606;52.138;5.424;2023-11-21T09:10:08;101684.16;;;9.48;100.00
71772;BME280;59606;52.138;5.424;2023-11-21T09:12:36;101694.34;;;9.54;100.00
71772;BME280;59606;52.138;5.424;2023-11-21T09:15:05;101692.47;;;9.57;100.00
71772;BME280;59606;52.138;5.424;2023-11-21T09:17:35;101705.47;;;9.57;100.00
71772;BME280;59606;52.138;5.424;2023-11-21T09:20:04;101709.88;;;9.55;100.00
71772;BME280;59606;52.138;5.424;2023-11-21T09:22:32;101707.34;;;9.54;100.00
71772;BME280;59606;52.138;5.424;2023-11-21T09:24:59;101707.34;;;9.54;100.00
71772;BME280;59606;52.138;5.424;2023-11-21T09:27:25;101710.78;;;9.54;100.00
71772;BME280;59606;52.138;5.424;2023-11-21T09:29:52;101710.78;;;9.54;100.00
71772;BME280;59606;52.138;5.424;2023-11-21T09:32:22;101712.47;;;9.55;100.00
71772;BME280;59606;52.138;5.424;2023-11-21T09:34:49;101718.56;;;9.56;100.00
71772;BME280;59606;52.138;5.424;2023-11-21T09:37:16;101728.16;;;9.54;100.00
71772;BME280;59606;52.138;5.424;2023-11-21T09:39:43;101739.47;;;9.53;100.00
71772;BME280;59606;52.138;5.424;2023-11-21T09:42:12;101743.03;;;9.50;100.00
71772;BME280;59606;52.138;5.424;2023-11-21T09:47:26;101748.44;;;9.44;100.00
71772;BME280;59606;52.138;5.424;2023-11-21T09:49:54;101755.41;;;9.43;100.00
71772;BME280;59606;52.138;5.424;2023-11-21T09:52:25;101766.72;;;9.42;100.00
71772;BME280;59606;52.138;5.424;2023-11-21T09:54:54;101760.63;;;9.42;100.00
71772;BME280;59606;52.138;5.424;2023-11-21T09:57:21;101763.22;;;9.42;100.00
71772;BME280;59606;52.138;5.424;2023-11-21T09:59:53;101771.00;;;9.43;100.00
71772;BME280;59606;52.138;5.424;2023-11-21T10:02:27;101766.63;;;9.44;100.00
71772;BME280;59606;52.138;5.424;2023-11-21T10:04:59;101771.84;;;9.44;100.00
71772;BME280;59606;52.138;5.424;2023-11-21T10:07:26;101774.56;;;9.41;100.00
71772;BME280;59606;52.138;5.424;2023-11-21T10:09:55;101774.56;;;9.41;100.00
71772;BME280;59606;52.138;5.424;2023-11-21T10:12:23;101778.06;;;9.40;100.00
71772;BME280;59606;52.138;5.424;2023-11-21T10:14:50;101780.59;;;9.41;100.00
71772;BME280;59606;52.138;5.424;2023-11-21T10:17:19;101782.41;;;9.39;100.00
71772;BME280;59606;52.138;5.424;2023-11-21T10:19:49;101791.00;;;9.41;100.00
71772;BME280;59606;52.138;5.424;2023-11-21T10:22:17;101800.38;;;9.45;100.00
71772;BME280;59606;52.138;5.424;2023-11-21T10:24:43;101804.63;;;9.48;100.00
71772;BME280;59606;52.138;5.424;2023-11-21T10:27:19;101801.94;;;9.51;100.00
71772;BME280;59606;52.138;5.424;2023-11-21T10:29:45;101807.03;;;9.54;100.00
71772;BME280;59606;52.138;5.424;2023-11-21T10:32:12;101808.59;;;9.60;100.00
71772;BME280;59606;52.138;5.424;2023-11-21T10:34:39;101813.88;;;9.57;100.00
71772;BME280;59606;52.138;5.424;2023-11-21T10:37:11;101813.88;;;9.57;100.00
71772;BME280;59606;52.138;5.424;2023-11-21T10:39:39;101825.25;;;9.54;100.00
71772;BME280;59606;52.138;5.424;2023-11-21T10:42:08;101835.81;;;9.50;100.00
71772;BME280;59606;52.138;5.424;2023-11-21T10:44:35;101841.13;;;9.47;100.00
71772;BME280;59606;52.138;5.424;2023-11-21T10:47:02;101856.75;;;9.45;100.00
71772;BME280;59606;52.138;5.424;2023-11-21T10:49:29;101853.28;;;9.46;100.00
71772;BME280;59606;52.138;5.424;2023-11-21T10:51:56;101862.94;;;9.42;100.00
71772;BME280;59606;52.138;5.424;2023-11-21T10:54:24;101862.06;;;9.42;100.00
71772;BME280;59606;52.138;5.424;2023-11-21T10:56:59;101870.78;;;9.41;100.00
71772;BME280;59606;52.138;5.424;2023-11-21T10:59:29;101875.06;;;9.42;100.00
71772;BME280;59606;52.138;5.424;2023-11-21T11:01:58;101873.34;;;9.42;100.00
71772;BME280;59606;52.138;5.424;2023-11-21T11:04:27;101874.22;;;9.41;100.00
71772;BME280;59606;52.138;5.424;2023-11-21T11:06:56;101877.63;;;9.43;100.00
71772;BME280;59606;52.138;5.424;2023-11-21T11:09:24;101874.09;;;9.46;100.00
71772;BME280;59606;52.138;5.424;2023-11-21T11:11:51;101873.13;;;9.49;100.00
71772;BME280;59606;52.138;5.424;2023-11-21T11:14:19;101875.69;;;9.50;100.00
71772;BME280;59606;52.138;5.424;2023-11-21T11:16:46;101868.72;;;9.51;100.00
71772;BME280;59606;52.138;5.424;2023-11-21T11:19:16;101870.41;;;9.52;100.00
71772;BME280;59606;52.138;5.424;2023-11-21T11:21:57;101879.97;;;9.51;100.00
71772;BME280;59606;52.138;5.424;2023-11-21T11:27:28;101880.91;;;9.49;100.00
71772;BME280;59606;52.138;5.424;2023-11-21T11:33:09;101884.22;;;9.54;100.00
71772;BME280;59606;52.138;5.424;2023-11-21T11:35:50;101888.41;;;9.58;100.00
71772;BME280;59606;52.138;5.424;2023-11-21T11:38:23;101887.50;;;9.59;100.00
71772;BME280;59606;52.138;5.424;2023-11-21T11:40:53;101884.81;;;9.62;100.00
71772;BME280;59606;52.138;5.424;2023-11-21T11:43:26;101890.00;;;9.62;100.00
71772;BME280;59606;52.138;5.424;2023-11-21T11:45:57;101896.84;;;9.66;100.00
71772;BME280;59606;52.138;5.424;2023-11-21T11:48:25;101894.22;;;9.66;100.00
71772;BME280;59606;52.138;5.424;2023-11-21T11:51:25;101894.97;;;9.70;100.00
71772;BME280;59606;52.138;5.424;2023-11-21T11:53:51;101904.41;;;9.72;100.00
71772;BME280;59606;52.138;5.424;2023-11-21T11:56:24;101913.94;;;9.73;100.00
71772;BME280;59606;52.138;5.424;2023-11-21T11:58:56;101917.38;;;9.74;100.00
71772;BME280;59606;52.138;5.424;2023-11-21T12:01:25;101911.38;;;9.72;100.00
71772;BME280;59606;52.138;5.424;2023-11-21T12:06:44;101933.91;;;9.73;100.00
71772;BME280;59606;52.138;5.424;2023-11-21T12:09:20;101939.16;;;9.71;100.00
71772;BME280;59606;52.138;5.424;2023-11-21T12:11:51;101938.22;;;9.72;100.00
71772;BME280;59606;52.138;5.424;2023-11-21T12:14:18;101933.94;;;9.71;100.00
71772;BME280;59606;52.138;5.424;2023-11-21T12:16:44;101942.66;;;9.70;100.00
71772;BME280;59606;52.138;5.424;2023-11-21T12:19:12;101933.13;;;9.69;100.00
71772;BME280;59606;52.138;5.424;2023-11-21T12:21:40;101940.06;;;9.70;100.00
71772;BME280;59606;52.138;5.424;2023-11-21T12:24:10;101948.75;;;9.69;100.00
71772;BME280;59606;52.138;5.424;2023-11-21T12:26:40;101949.66;;;9.68;100.00
71772;BME280;59606;52.138;5.424;2023-11-21T12:29:07;101954.00;;;9.67;100.00
71772;BME280;59606;52.138;5.424;2023-11-21T12:31:37;101951.41;;;9.67;100.00
71772;BME280;59606;52.138;5.424;2023-11-21T12:34:04;101941.91;;;9.66;100.00
71772;BME280;59606;52.138;5.424;2023-11-21T12:36:34;101942.75;;;9.67;100.00
71772;BME280;59606;52.138;5.424;2023-11-21T12:39:02;101951.47;;;9.66;100.00
71772;BME280;59606;52.138;5.424;2023-11-21T12:41:29;101948.00;;;9.65;100.00
71772;BME280;59606;52.138;5.424;2023-11-21T12:43:57;101948.91;;;9.64;100.00
71772;BME280;59606;52.138;5.424;2023-11-21T12:46:25;101957.56;;;9.65;100.00
71772;BME280;59606;52.138;5.424;2023-11-21T12:48:56;101958.47;;;9.64;100.00
71772;BME280;59606;52.138;5.424;2023-11-21T12:51:24;101955.03;;;9.63;100.00
71772;BME280;59606;52.138;5.424;2023-11-21T12:53:51;101967.13;;;9.64;100.00
71772;BME280;59606;52.138;5.424;2023-11-21T12:56:21;101966.28;;;9.64;100.00
71772;BME280;59606;52.138;5.424;2023-11-21T12:58:49;101970.63;;;9.63;100.00
71772;BME280;59606;52.138;5.424;2023-11-21T13:01:20;101982.69;;;9.66;100.00
71772;BME280;59606;52.138;5.424;2023-11-21T13:03:50;101978.25;;;9.70;100.00
71772;BME280;59606;52.138;5.424;2023-11-21T13:06:18;101981.59;;;9.73;100.00
71772;BME280;59606;52.138;5.424;2023-11-21T13:08:46;101988.31;;;9.79;100.00